createdAt,value
2023-02-19T00:01:28.754Z,79.55
2023-02-19T00:04:04.069Z,79.53
2023-02-19T00:06:36.813Z,80.27
2023-02-19T00:09:10.051Z,79.14
2023-02-19T00:11:43.363Z,79.21
2023-02-19T00:14:20.899Z,78.72
2023-02-19T00:16:53.353Z,79.68
2023-02-19T00:19:26.480Z,79.36
2023-02-19T00:21:59.264Z,79.53
2023-02-19T00:24:32.321Z,78.96
2023-02-19T00:27:05.252Z,79.12
2023-02-19T00:29:37.647Z,79.92
2023-02-19T00:32:10.689Z,79.08
2023-02-19T00:34:43.592Z,80.20
2023-02-19T00:37:15.868Z,79.25
2023-02-19T00:39:48.374Z,79.05
2023-02-19T00:42:20.797Z,79.41
2023-02-19T00:44:53.113Z,79.48
2023-02-19T00:47:25.605Z,79.40
2023-02-19T00:49:58.317Z,79.37
2023-02-19T00:52:30.845Z,79.59
2023-02-19T00:55:03.509Z,79.48
2023-02-19T00:57:35.992Z,79.51
2023-02-19T01:00:09.179Z,79.36
2023-02-19T01:02:41.945Z,79.42
2023-02-19T01:05:15.002Z,79.87
2023-02-19T01:07:48.236Z,79.07
2023-02-19T01:10:20.786Z,79.31
2023-02-19T01:12:54.128Z,79.36
2023-02-19T01:15:26.547Z,80.20
2023-02-19T01:17:59.568Z,79.51
2023-02-19T01:20:31.910Z,80.36
2023-02-19T01:23:04.342Z,80.24
2023-02-19T01:25:39.247Z,80.31
2023-02-19T01:28:12.303Z,80.58
2023-02-19T01:30:44.576Z,80.43
2023-02-19T01:33:17.564Z,81.14
2023-02-19T01:35:50.250Z,80.12
2023-02-19T01:38:22.822Z,80.24
2023-02-19T01:41:02.057Z,80.23
2023-02-19T01:43:36.052Z,80.94
2023-02-19T01:46:09.077Z,80.32
2023-02-19T01:48:41.441Z,80.53
2023-02-19T01:51:16.935Z,80.87
2023-02-19T01:53:53.645Z,80.75
2023-02-19T01:56:26.614Z,81.31
2023-02-19T01:58:59.221Z,81.20
2023-02-19T02:01:31.609Z,80.25
2023-02-19T02:04:04.619Z,80.90
2023-02-19T02:06:51.833Z,80.36
2023-02-19T02:09:49.106Z,80.02
2023-02-19T02:12:21.362Z,80.33
2023-02-19T02:14:54.465Z,80.80
2023-02-19T02:17:39.557Z,80.31
2023-02-19T02:20:54.717Z,80.31
2023-02-19T02:24:07.390Z,80.53
2023-02-19T02:27:12.815Z,81.70
2023-02-19T02:30:12.876Z,80.96
2023-02-19T02:33:17.887Z,81.53
2023-02-19T02:35:54.830Z,81.10
2023-02-19T02:38:30.430Z,80.54
2023-02-19T02:41:02.764Z,81.93
2023-02-19T02:43:35.778Z,81.96
2023-02-19T02:46:12.726Z,81.51
2023-02-19T02:48:56.242Z,82.37
2023-02-19T02:51:42.625Z,82.77
2023-02-19T02:54:46.689Z,82.84
2023-02-19T02:57:19.395Z,83.54
2023-02-19T02:59:53.450Z,84.29
2023-02-19T03:02:28.879Z,84.96
2023-02-19T03:05:37.549Z,84.78
2023-02-19T03:08:17.305Z,85.22
2023-02-19T03:10:54.553Z,85.50
2023-02-19T03:13:52.688Z,85.75
2023-02-19T03:16:49.938Z,86.67
2023-02-19T03:19:24.030Z,87.48
2023-02-19T03:22:20.041Z,87.50
2023-02-19T03:25:19.882Z,88.17
2023-02-19T03:27:52.508Z,88.07
2023-02-19T03:30:28.957Z,88.21
2023-02-19T03:33:08.300Z,88.64
2023-02-19T03:35:45.214Z,88.56
2023-02-19T03:38:36.966Z,88.48
2023-02-19T03:41:13.870Z,89.40
2023-02-19T03:43:56.752Z,89.25
2023-02-19T03:46:40.014Z,89.83
2023-02-19T03:49:31.157Z,89.44
2023-02-19T03:52:23.946Z,89.90
2023-02-19T03:55:19.764Z,89.64
2023-02-19T03:58:05.378Z,89.83
2023-02-19T04:00:56.588Z,90.07
2023-02-19T04:03:40.541Z,89.48
2023-02-19T04:06:16.291Z,89.81
2023-02-19T04:08:51.561Z,90.54
2023-02-19T04:11:24.534Z,90.92
2023-02-19T04:14:15.694Z,90.79
2023-02-19T04:16:52.414Z,91.25
2023-02-19T04:19:26.985Z,91.39
2023-02-19T04:22:00.012Z,91.53
2023-02-19T04:24:44.859Z,91.22
2023-02-19T04:27:16.774Z,91.12
2023-02-19T04:29:48.994Z,91.71
2023-02-19T04:32:21.491Z,92.14
2023-02-19T04:34:55.024Z,92.86
2023-02-19T04:37:28.009Z,92.95
2023-02-19T04:40:00.375Z,93.04
2023-02-19T04:42:32.876Z,93.38
2023-02-19T04:45:05.495Z,93.93
2023-02-19T04:47:38.295Z,95.00
2023-02-19T04:50:11.193Z,94.99
2023-02-19T04:52:43.992Z,95.79
2023-02-19T04:55:16.920Z,96.38
2023-02-19T04:57:49.276Z,96.22
2023-02-19T05:00:22.704Z,95.78
2023-02-19T05:02:55.016Z,95.62
2023-02-19T05:05:27.803Z,95.61
2023-02-19T05:08:00.320Z,95.62
2023-02-19T05:10:33.816Z,95.55
2023-02-19T05:13:06.169Z,95.27
2023-02-19T05:15:38.705Z,96.40
2023-02-19T05:18:11.308Z,96.22
2023-02-19T05:20:43.778Z,94.86
2023-02-19T05:23:16.250Z,94.50
2023-02-19T05:25:49.097Z,94.68
2023-02-19T05:28:24.261Z,94.50
2023-02-19T05:30:57.815Z,94.27
2023-02-19T05:33:30.238Z,93.57
2023-02-19T05:36:09.310Z,92.10
2023-02-19T05:38:43.487Z,90.85
2023-02-19T05:41:19.141Z,89.32
2023-02-19T05:43:51.564Z,87.64
2023-02-19T05:46:29.417Z,85.87
2023-02-19T05:49:02.134Z,84.46
2023-02-19T05:51:34.443Z,83.85
2023-02-19T05:54:07.317Z,81.70
2023-02-19T05:56:41.579Z,79.38
2023-02-19T05:59:20.117Z,77.81
2023-02-19T06:01:53.774Z,76.43
2023-02-19T06:04:26.204Z,74.66
2023-02-19T06:06:59.378Z,73.89
2023-02-19T06:09:32.509Z,72.28
2023-02-19T06:12:05.056Z,70.31
2023-02-19T06:14:38.824Z,68.66
2023-02-19T06:17:11.343Z,67.77
2023-02-19T06:19:43.687Z,67.39
2023-02-19T06:22:17.003Z,65.28
2023-02-19T06:24:50.157Z,64.08
2023-02-19T06:27:22.666Z,63.62
2023-02-19T06:29:56.739Z,61.81
2023-02-19T06:32:29.606Z,61.11
2023-02-19T06:35:01.930Z,61.34
2023-02-19T06:37:34.430Z,60.01
2023-02-19T06:40:07.227Z,59.10
2023-02-19T06:42:40.325Z,57.77
2023-02-19T06:45:12.775Z,56.26
2023-02-19T06:47:45.332Z,56.27
2023-02-19T06:50:18.045Z,55.46
2023-02-19T06:52:51.157Z,55.82
2023-02-19T06:55:24.203Z,56.09
2023-02-19T06:57:56.580Z,55.92
2023-02-19T07:00:29.037Z,55.97
2023-02-19T07:03:05.437Z,55.14
2023-02-19T07:05:38.337Z,55.82
2023-02-19T07:08:10.924Z,56.03
2023-02-19T07:10:44.022Z,54.52
2023-02-19T07:13:16.446Z,54.65
2023-02-19T07:15:52.018Z,55.35
2023-02-19T07:18:24.946Z,58.35
2023-02-19T07:21:07.232Z,57.65
2023-02-19T07:23:39.845Z,56.74
2023-02-19T07:26:14.411Z,55.71
2023-02-19T07:28:47.915Z,54.01
2023-02-19T07:31:21.666Z,52.63
2023-02-19T07:33:54.162Z,52.58
2023-02-19T07:36:26.930Z,51.21
2023-02-19T07:39:00.514Z,52.81
2023-02-19T07:41:33.114Z,52.34
2023-02-19T07:44:07.321Z,51.15
2023-02-19T07:46:40.960Z,52.29
2023-02-19T07:49:13.308Z,53.05
2023-02-19T07:51:45.798Z,53.60
2023-02-19T07:54:19.972Z,54.27
2023-02-19T07:56:52.409Z,55.04
2023-02-19T07:59:24.770Z,53.21
2023-02-19T08:02:15.314Z,52.96
2023-02-19T08:04:49.301Z,53.75
2023-02-19T08:07:23.088Z,54.69
2023-02-19T08:09:57.106Z,55.57
2023-02-19T08:12:47.010Z,55.99
2023-02-19T08:15:22.398Z,57.76
2023-02-19T08:17:55.678Z,60.57
2023-02-19T08:20:28.236Z,62.74
2023-02-19T08:23:00.616Z,62.02
2023-02-19T08:25:33.073Z,61.10
2023-02-19T08:28:06.525Z,58.29
2023-02-19T08:30:41.949Z,60.34
2023-02-19T08:33:17.286Z,59.44
2023-02-19T08:35:50.468Z,60.04
2023-02-19T08:38:23.610Z,59.32
2023-02-19T08:40:57.338Z,59.09
2023-02-19T08:43:30.236Z,59.68
2023-02-19T08:46:02.865Z,58.76
2023-02-19T08:48:35.992Z,55.71
2023-02-19T08:51:11.535Z,56.19
2023-02-19T08:53:44.984Z,56.37
2023-02-19T08:56:17.852Z,54.30
2023-02-19T08:58:50.233Z,53.28
2023-02-19T09:01:23.965Z,53.32
2023-02-19T09:03:57.158Z,56.29
2023-02-19T09:06:29.608Z,57.81
2023-02-19T09:09:02.576Z,57.72
2023-02-19T09:11:36.093Z,60.23
2023-02-19T09:14:08.462Z,61.46
2023-02-19T09:16:41.968Z,63.31
2023-02-19T09:19:14.611Z,63.38
2023-02-19T09:21:47.181Z,61.92
2023-02-19T09:24:19.604Z,62.01
2023-02-19T09:26:54.043Z,64.36
2023-02-19T09:29:27.476Z,67.11
2023-02-19T09:32:01.445Z,64.85
2023-02-19T09:34:34.002Z,65.75
2023-02-19T09:37:07.253Z,66.12
2023-02-19T09:39:40.991Z,65.41
2023-02-19T09:42:17.796Z,65.59
2023-02-19T09:44:52.255Z,66.35
2023-02-19T09:47:30.157Z,71.45
2023-02-19T09:50:10.342Z,67.47
2023-02-19T09:52:54.289Z,68.10
2023-02-19T09:55:42.482Z,70.00
2023-02-19T09:58:26.021Z,72.05
2023-02-19T10:00:59.531Z,68.83
2023-02-19T10:03:42.077Z,68.47
2023-02-19T10:06:27.476Z,70.30
2023-02-19T10:09:24.047Z,71.16
2023-02-19T10:11:57.688Z,72.78
2023-02-19T10:14:42.130Z,72.25
2023-02-19T10:17:22.026Z,71.93
2023-02-19T10:19:54.824Z,72.05
2023-02-19T10:22:27.220Z,71.21
2023-02-19T10:25:00.127Z,68.45
2023-02-19T10:27:32.763Z,69.17
2023-02-19T10:30:06.313Z,69.31
2023-02-19T10:32:40.675Z,72.71
2023-02-19T10:35:17.117Z,72.03
2023-02-19T10:37:51.065Z,72.07
2023-02-19T10:40:27.183Z,72.95
2023-02-19T10:43:04.990Z,72.51
2023-02-19T10:45:48.833Z,74.29
2023-02-19T10:48:25.103Z,74.03
2023-02-19T10:51:09.149Z,73.12
2023-02-19T10:53:48.124Z,72.21
2023-02-19T10:56:30.084Z,72.81
2023-02-19T10:59:21.794Z,69.90
2023-02-19T11:02:06.584Z,71.40
2023-02-19T11:04:39.329Z,72.85
2023-02-19T11:07:19.409Z,72.57
2023-02-19T11:09:53.902Z,71.14
2023-02-19T11:12:33.578Z,70.48
2023-02-19T11:15:25.602Z,69.37
2023-02-19T11:18:17.458Z,71.91
2023-02-19T11:21:01.071Z,70.98
2023-02-19T11:23:41.712Z,71.16
2023-02-19T11:26:23.533Z,72.10
2023-02-19T11:29:01.068Z,69.92
2023-02-19T11:31:36.209Z,71.27
2023-02-19T11:34:23.607Z,71.81
2023-02-19T11:37:16.622Z,71.73
2023-02-19T11:39:54.864Z,71.21
2023-02-19T11:42:50.018Z,69.33
2023-02-19T11:45:25.133Z,69.07
2023-02-19T11:48:20.324Z,68.78
2023-02-19T11:51:30.423Z,68.46
2023-02-19T11:54:16.028Z,67.14
2023-02-19T11:56:57.274Z,67.21
2023-02-19T11:59:37.414Z,67.64
2023-02-19T12:02:30.212Z,68.46
2023-02-19T12:05:19.153Z,68.67
2023-02-19T12:08:14.122Z,70.31
2023-02-19T12:10:51.770Z,73.09
2023-02-19T12:13:47.500Z,72.21
2023-02-19T12:16:43.277Z,72.28
2023-02-19T12:19:18.430Z,72.01
2023-02-19T12:22:18.961Z,73.68
2023-02-19T12:25:22.838Z,71.96
2023-02-19T12:28:11.809Z,70.23
2023-02-19T12:31:06.933Z,69.44
2023-02-19T12:34:04.811Z,68.56
2023-02-19T12:37:16.652Z,70.39
2023-02-19T12:40:20.473Z,69.83
2023-02-19T12:43:13.495Z,69.64
2023-02-19T12:45:56.189Z,70.88
2023-02-19T12:48:39.282Z,70.47
2023-02-19T12:51:17.305Z,70.86
2023-02-19T12:53:56.043Z,70.46
2023-02-19T12:56:44.452Z,69.43
2023-02-19T12:59:40.532Z,68.56
2023-02-19T13:02:44.734Z,70.68
2023-02-19T13:05:30.751Z,70.82
2023-02-19T13:08:22.276Z,70.32
2023-02-19T13:11:10.152Z,69.77
2023-02-19T13:13:52.801Z,69.43
2023-02-19T13:16:25.344Z,68.81
2023-02-19T13:19:03.278Z,69.23
2023-02-19T13:21:55.993Z,67.99
2023-02-19T13:24:34.345Z,69.23
2023-02-19T13:27:30.460Z,68.51
2023-02-19T13:30:17.150Z,66.84
2023-02-19T13:33:16.139Z,66.48
2023-02-19T13:36:20.421Z,68.55
2023-02-19T13:38:53.163Z,67.18
2023-02-19T13:41:51.800Z,67.05
2023-02-19T13:44:28.204Z,66.51
2023-02-19T13:47:00.946Z,64.85
2023-02-19T13:49:38.512Z,64.96
2023-02-19T13:52:34.428Z,66.76
2023-02-19T13:55:48.831Z,65.95
2023-02-19T13:58:54.834Z,66.32
2023-02-19T14:01:54.299Z,65.86
2023-02-19T14:04:43.461Z,66.01
2023-02-19T14:07:20.807Z,65.71
2023-02-19T14:09:54.630Z,65.66
2023-02-19T14:12:37.198Z,65.26
2023-02-19T14:15:44.122Z,65.52
2023-02-19T14:18:47.171Z,65.50
2023-02-19T14:21:28.431Z,64.24
2023-02-19T14:24:02.090Z,63.52
2023-02-19T14:26:35.441Z,64.87
2023-02-19T14:29:10.707Z,65.02
2023-02-19T14:31:45.467Z,64.96
2023-02-19T14:34:25.158Z,63.83
2023-02-19T14:37:01.178Z,63.80
2023-02-19T14:39:41.280Z,64.09
2023-02-19T14:42:23.453Z,64.94
2023-02-19T14:44:58.577Z,64.17
2023-02-19T14:47:33.356Z,64.71
2023-02-19T14:50:09.722Z,65.25
2023-02-19T14:52:51.025Z,65.50
2023-02-19T14:55:35.301Z,65.11
2023-02-19T14:58:16.917Z,65.04
2023-02-19T15:00:49.267Z,65.45
2023-02-19T15:03:38.433Z,65.87
2023-02-19T15:06:18.102Z,66.87
2023-02-19T15:08:57.104Z,66.98
2023-02-19T15:11:32.092Z,67.38
2023-02-19T15:14:07.102Z,68.59
2023-02-19T15:16:40.485Z,67.34
2023-02-19T15:19:14.620Z,67.06
2023-02-19T15:21:49.884Z,67.91
2023-02-19T15:24:22.761Z,68.55
2023-02-19T15:26:55.652Z,67.87
2023-02-19T15:29:29.813Z,68.23
2023-02-19T15:32:02.960Z,68.36
2023-02-19T15:34:35.643Z,68.81
2023-02-19T15:37:09.735Z,69.02
2023-02-19T15:39:47.349Z,69.31
2023-02-19T15:42:22.598Z,69.14
2023-02-19T15:45:24.268Z,68.93
2023-02-19T15:48:21.189Z,67.43
2023-02-19T15:51:02.448Z,69.49
2023-02-19T15:53:36.292Z,69.56
2023-02-19T15:56:21.967Z,69.24
2023-02-19T15:59:04.280Z,70.44
2023-02-19T16:01:39.957Z,70.37
2023-02-19T16:04:17.485Z,69.92
2023-02-19T16:07:01.826Z,69.37
2023-02-19T16:09:39.939Z,69.16
2023-02-19T16:12:27.521Z,68.91
2023-02-19T16:15:00.791Z,68.45
2023-02-19T16:17:34.366Z,68.43
2023-02-19T16:20:07.114Z,69.10
2023-02-19T16:22:42.829Z,69.52
2023-02-19T16:25:42.154Z,69.68
2023-02-19T16:28:17.598Z,68.78
2023-02-19T16:30:59.470Z,68.65
2023-02-19T16:33:48.770Z,69.94
2023-02-19T16:36:34.895Z,70.31
2023-02-19T16:39:15.189Z,70.02
2023-02-19T16:41:55.740Z,68.51
2023-02-19T16:44:31.410Z,69.07
2023-02-19T16:47:07.486Z,69.06
2023-02-19T16:49:41.455Z,69.44
2023-02-19T16:52:16.760Z,70.28
2023-02-19T16:54:50.101Z,69.30
2023-02-19T16:57:22.492Z,68.79
2023-02-19T16:59:54.860Z,66.99
2023-02-19T17:02:27.261Z,67.97
2023-02-19T17:04:59.646Z,67.67
2023-02-19T17:07:32.090Z,67.89
2023-02-19T17:10:06.324Z,67.58
2023-02-19T17:12:39.326Z,67.09
2023-02-19T17:15:13.536Z,67.49
2023-02-19T17:17:47.264Z,67.59
2023-02-19T17:20:25.394Z,67.98
2023-02-19T17:22:58.003Z,68.08
2023-02-19T17:25:30.419Z,67.83
2023-02-19T17:28:03.962Z,68.55
2023-02-19T17:30:38.872Z,68.42
2023-02-19T17:33:11.362Z,68.81
2023-02-19T17:35:45.155Z,69.53
2023-02-19T17:38:17.528Z,69.51
2023-02-19T17:40:50.871Z,70.21
2023-02-19T17:43:25.455Z,70.80
2023-02-19T17:45:58.110Z,70.82
2023-02-19T17:48:30.464Z,69.65
2023-02-19T17:51:03.439Z,69.58
2023-02-19T17:53:36.038Z,71.08
2023-02-19T17:56:08.538Z,71.77
2023-02-19T17:58:41.498Z,71.82
2023-02-19T18:01:15.469Z,72.21
2023-02-19T18:03:48.302Z,71.26
2023-02-19T18:06:21.016Z,69.54
2023-02-19T18:08:54.628Z,71.30
2023-02-19T18:11:26.772Z,71.60
2023-02-19T18:13:59.759Z,71.71
2023-02-19T18:16:32.900Z,72.53
2023-02-19T18:19:05.423Z,73.08
2023-02-19T18:21:39.536Z,73.28
2023-02-19T18:24:12.071Z,73.91
2023-02-19T18:26:44.747Z,74.07
2023-02-19T18:29:18.608Z,74.14
2023-02-19T18:31:51.606Z,73.74
2023-02-19T18:34:24.088Z,75.69
2023-02-19T18:36:56.453Z,76.56
2023-02-19T18:39:29.039Z,77.29
2023-02-19T18:42:02.360Z,77.83
2023-02-19T18:44:35.940Z,77.18
2023-02-19T18:47:09.026Z,78.47
2023-02-19T18:49:41.577Z,79.54
2023-02-19T18:52:14.094Z,80.47
2023-02-19T18:54:46.541Z,81.09
2023-02-19T18:57:22.896Z,82.95
2023-02-19T18:59:55.580Z,85.29
2023-02-19T19:02:33.755Z,85.60
2023-02-19T19:05:02.594Z,86.47
2023-02-19T19:07:35.178Z,86.11
2023-02-19T19:10:09.278Z,85.50
2023-02-19T19:12:42.530Z,85.57
2023-02-19T19:15:18.298Z,85.93
2023-02-19T19:17:50.692Z,84.92
2023-02-19T19:20:23.713Z,85.10
2023-02-19T19:22:56.063Z,85.00
2023-02-19T19:25:28.607Z,83.39
2023-02-19T19:28:01.762Z,84.22
2023-02-19T19:30:34.114Z,84.15
2023-02-19T19:33:08.265Z,83.57
2023-02-19T19:35:40.962Z,84.14
2023-02-19T19:38:13.790Z,83.90
2023-02-19T19:40:46.388Z,82.99
2023-02-19T19:43:18.840Z,83.39
2023-02-19T19:45:51.289Z,83.47
2023-02-19T19:48:24.424Z,83.47
2023-02-19T19:50:57.617Z,83.63
2023-02-19T19:53:30.018Z,83.28
2023-02-19T19:56:02.696Z,83.56
2023-02-19T19:58:37.414Z,82.93
2023-02-19T20:01:10.133Z,83.20
2023-02-19T20:03:43.664Z,83.57
2023-02-19T20:06:16.061Z,84.12
2023-02-19T20:08:48.366Z,84.30
2023-02-19T20:11:20.747Z,85.15
2023-02-19T20:13:53.027Z,83.61
2023-02-19T20:16:28.602Z,83.25
2023-02-19T20:19:01.467Z,83.99
2023-02-19T20:21:34.268Z,83.56
2023-02-19T20:24:07.345Z,84.20
2023-02-19T20:26:39.923Z,85.04
2023-02-19T20:29:12.943Z,85.13
2023-02-19T20:31:50.780Z,85.99
2023-02-19T20:34:24.018Z,86.00
2023-02-19T20:36:56.691Z,85.94
2023-02-19T20:39:29.984Z,85.01
2023-02-19T20:42:03.584Z,86.41
2023-02-19T20:44:36.591Z,86.44
2023-02-19T20:47:09.561Z,85.70
2023-02-19T20:49:43.920Z,85.83
2023-02-19T20:52:19.467Z,85.60
2023-02-19T20:54:56.823Z,84.89
2023-02-19T20:57:29.472Z,84.42
2023-02-19T21:00:02.035Z,83.50
2023-02-19T21:02:34.822Z,83.54
2023-02-19T21:05:07.720Z,83.43
2023-02-19T21:07:41.232Z,84.11
2023-02-19T21:10:14.121Z,83.83
2023-02-19T21:12:46.701Z,83.14
2023-02-19T21:15:20.139Z,82.93
2023-02-19T21:17:52.437Z,82.93
2023-02-19T21:20:24.724Z,84.00
2023-02-19T21:22:57.393Z,84.99
2023-02-19T21:25:31.312Z,84.79
2023-02-19T21:28:03.913Z,85.12
2023-02-19T21:30:36.906Z,85.97
2023-02-19T21:33:09.537Z,86.00
2023-02-19T21:35:42.532Z,86.05
2023-02-19T21:38:16.204Z,85.77
2023-02-19T21:40:48.468Z,86.14
2023-02-19T21:43:21.164Z,85.97
2023-02-19T21:45:53.593Z,84.92
2023-02-19T21:48:26.838Z,86.02
2023-02-19T21:50:59.295Z,85.76
2023-02-19T21:53:31.589Z,85.56
2023-02-19T21:56:03.913Z,85.96
2023-02-19T21:58:37.758Z,85.88
2023-02-19T22:01:10.187Z,85.68
2023-02-19T22:03:42.637Z,86.70
2023-02-19T22:06:15.404Z,87.55
2023-02-19T22:08:48.369Z,86.75
2023-02-19T22:11:20.696Z,87.49
2023-02-19T22:13:53.346Z,87.67
2023-02-19T22:16:25.744Z,86.22
2023-02-19T22:18:59.716Z,87.01
2023-02-19T22:21:35.569Z,86.60
2023-02-19T22:24:08.824Z,87.02
2023-02-19T22:26:42.692Z,86.61
2023-02-19T22:29:16.394Z,85.96
2023-02-19T22:31:49.197Z,86.79
2023-02-19T22:34:21.608Z,86.45
2023-02-19T22:36:55.182Z,85.94
2023-02-19T22:39:28.433Z,85.50
2023-02-19T22:42:00.818Z,85.52
2023-02-19T22:44:35.395Z,87.11
2023-02-19T22:47:07.845Z,86.99
2023-02-19T22:49:43.083Z,86.50
2023-02-19T22:52:14.325Z,85.88
2023-02-19T22:54:47.118Z,86.25
2023-02-19T22:57:19.377Z,86.12
2023-02-19T22:59:51.979Z,86.45
2023-02-19T23:02:24.369Z,86.17
2023-02-19T23:04:56.781Z,86.07
2023-02-19T23:07:29.146Z,87.09
2023-02-19T23:10:01.665Z,85.67
2023-02-19T23:12:34.402Z,84.53
2023-02-19T23:15:08.696Z,83.48
2023-02-19T23:17:41.265Z,83.14
2023-02-19T23:20:15.096Z,83.03
2023-02-19T23:22:48.525Z,83.43
2023-02-19T23:25:21.589Z,84.19
2023-02-19T23:27:54.156Z,83.33
2023-02-19T23:30:26.696Z,83.49
2023-02-19T23:32:59.542Z,83.17
2023-02-19T23:35:32.121Z,81.58
2023-02-19T23:38:04.521Z,82.76
2023-02-19T23:40:37.272Z,83.47
2023-02-19T23:43:09.990Z,82.59
2023-02-19T23:45:42.652Z,83.81
2023-02-19T23:48:15.171Z,82.61
2023-02-19T23:50:47.828Z,82.87
2023-02-19T23:53:20.603Z,81.95
2023-02-19T23:55:53.189Z,81.55
2023-02-19T23:58:25.458Z,83.15
